Logo AVAMET
Benvolgut visitant, si us plau, ingressa Recuperar contrasenya

Picassent

Dades diàries. Acumulats / Últims 30 dies disponibles

Data Temperatura (°C) Humitat rel. (%) Pressió rel. (hPa) Vent (km/h) Precipitació
Mínima Mitjana Màxima Amplitud
tèrmica
Mínima Mitjana Màxima Mínima Mitjana Màxima Predom. Mitjana Ràfega
màxima
Total
(mm)
Índex-n
Mínima Mitjana Màxima Mínima Mitjana Màxima n
0 a 1
P0 max
mm 5'
Dades mensuals acumulades fins l'últim dia disponible
07/2019 21,4 22,8 24,9 26,7 28,5 30,7 37,4 16,0 22 68 89 1.010 1.015 1.018   6,2 50,3 8,6
Dades anuals acumulades fins l'últim dia disponible
2019 1,8 12,6 24,9 17,0 11,9 21,8 37,4 35,6 15 62 98 994 1.019 1.037   6,4 62,2 174,9
Últims 30 dies disponibles
19-07-2019 22,9     26,2     30,1 7,2 51 71 83 1.015 1.016 1.018 SSO 6,2 27,0 0,0
18-07-2019 22,6     26,2     29,3 6,7 43 67 79 1.014 1.015 1.016 S 6,3 26,3 0,0
17-07-2019 23,0     26,2     29,7 6,7 49 67 80 1.013 1.015 1.017 SSO 7,2 30,9 0,0
16-07-2019 23,1     26,1     29,1 6,0 59 74 86 1.015 1.016 1.017 S 7,5 28,7 0,0
15-07-2019 23,1     27,0     30,5 7,4 51 68 83 1.011 1.012 1.015 S 6,1 28,1 0,0
14-07-2019 22,1     26,3     29,6 7,5 57 71 87 1.011 1.012 1.014 SSO 5,9 28,7 0,0
13-07-2019 24,3     27,1     30,2 5,9 57 67 82 1.013 1.015 1.017 S 6,0 22,6 0,0
12-07-2019 23,2     27,6     32,7 9,5 43 62 79 1.014 1.015 1.017 SSO 5,7 20,9 0,0
11-07-2019 22,1     27,5     32,4 10,3 43 65 85 1.013 1.015 1.016 SO 6,5 30,9 0,0
10-07-2019 22,8     25,5     28,5 5,7 57 75 85 1.014 1.015 1.017 SSO 6,3 29,8 0,0
09-07-2019 22,1     26,7     33,2 11,1 23 65 84 1.011 1.012 1.015 OSO 7,3 29,8 2,8
08-07-2019 23,1     25,8     29,1 6,0 59 76 89 1.011 1.013 1.015 SSO 5,9 50,3 5,3 0,32 0,50
07-07-2019 24,9     29,4     37,4 12,5 22 57 84 1.010 1.012 1.014 SO 6,2 35,2 0,0
06-07-2019 22,4     27,7     32,3 9,9 46 72 89 1.011 1.013 1.016 SSO 5,4 23,3 0,5
05-07-2019 22,7     26,5     30,4 7,7 52 69 86 1.014 1.017 1.018 SSO 6,1 25,2 0,0
04-07-2019 21,6     26,7     30,6 9,0 38 60 86 1.015 1.017 1.018 SSE 5,5 25,5 0,0
03-07-2019 21,8     26,5     30,6 8,8 33 56 79 1.014 1.015 1.016 SSE 5,7 24,4 0,0
02-07-2019 23,5     26,1     29,1 5,6 58 73 89 1.015 1.016 1.017 SSE 6,3 21,6 0,0
01-07-2019 21,4     25,9     29,4 8,0 63 71 85 1.016 1.017 1.018 SSE 5,4 25,2 0,0
30-06-2019 22,3     27,7     32,6 10,3 33 50 82 1.016 1.018 1.019 S 5,0 20,2 0,0
29-06-2019 22,4     28,6     34,6 12,2 25 42 59 1.014 1.015 1.017 SO 5,7 23,3 0,0
28-06-2019 22,3     28,5     33,6 11,3 32 49 76 1.016 1.017 1.020 SSO 5,8 23,3 0,0
27-06-2019 21,3     26,2     31,9 10,6 41 67 86 1.019 1.020 1.022 S 5,1 20,2 0,0
26-06-2019 22,4     24,7     28,1 5,7 64 77 88 1.018 1.019 1.021 SE 5,8 23,7 0,0
25-06-2019 19,6     23,6     27,2 7,6 63 77 88 1.016 1.017 1.019 S 4,9 21,6 0,0
24-06-2019 19,7     23,6     27,2 7,5 50 70 85 1.014 1.015 1.017 SSE 5,3 21,6 0,0
23-06-2019 19,2     23,6     26,9 7,7 51 70 86 1.014 1.016 1.017 S 5,7 25,5 0,0
22-06-2019 19,6     22,7     25,6 6,0 60 73 84 1.015 1.017 1.018 SSO 6,0 24,4 0,0
21-06-2019 21,1     22,8     25,1 4,0 64 75 86 1.014 1.015 1.018 ESE 5,3 23,3 0,0
20-06-2019 19,8     22,6     25,3 5,5 62 73 88 1.012 1.014 1.015 S 5,4 23,7 0,0
Últims 13 mesos disponibles
06/2019 13,7 18,4 22,4 22,8 20,9 27,1 34,6 20,9 35 63 77 1.009 1.016 1.023 S 6,3 42,0 0,0
05/2019 9,8 14,7 20,7 19,0 18,9 23,2 32,4 22,6 47 64 82 1.006 1.016 1.025 SSO 6,5 47,4 14,6
04/2019 8,6 11,6 14,7 15,4 15,2 19,9 29,9 21,3 37 65 96 1.000 1.014 1.026 SO 7,2 47,7 132,7
03/2019 6,9 9,8 15,7 14,7 12,8 20,0 28,6 21,7 38 56 88 1.011 1.024 1.031 SO 5,9 49,2 19,0
02/2019 4,7 7,5 10,9 12,3 12,5 17,8 26,1 21,4 33 62 78 996 1.026 1.035 OSO 6,1 62,2 0,0
01/2019 1,8 7,0 12,7 11,3 11,9 16,8 20,2 18,4 39 56 76 1.003 1.020 1.031 SO 6,5 59,0 0,0
12/2018 4,7 9,6 14,5 13,3 14,2 18,1 22,8 18,1 50 67 90 1.009 1.026 1.031 O 5,7 46,1 12,2
11/2018 7,3 11,8 15,6 14,7 14,3 18,3 24,1 16,8 50 72 96 1.003 1.016 1.025 O 5,8 51,1 136,3
10/2018 7,6 15,2 19,6 19,0 13,7 22,7 28,3 20,7 43 69 90 1.002 1.016 1.027 5,6 51,0 177,6
09/2018 16,2 20,5 22,8 23,9 21,4 27,3 30,6 14,4 57 76 94 1.013 1.019 1.028 34,0 117,6
08/2018 20,7 23,8 26,9 26,7 25,3 29,5 35,8 15,1 53 69 86 1.013 1.017 1.021 44,0 9,0
07/2018 21,6 23,4 25,9 26,1 24,3 28,9 36,1 14,5 55 71 84 1.010 1.015 1.020 38,0 2,6
06/2018 14,8 18,8 24,2 22,6 22,3 26,4 31,1 16,3 46 65 80 1.010 1.015 1.021 40,0 111,7
Tots els anys disponibles
2018 2,4 14,9 26,9 18,3 5,9 21,9 36,1 33,7 36 66 96 994 1.017 1.037 O 1,0 74,0 751,9
Temperatura (°C)
Humitat relativa (%)
Velocitat del vent i ràfega màxima (km/h)
Direcció del vent (°)
Pressió (hPa)
Precipitació (mm)
Nota sobre les dades: s'avisa a l'usuari de la provisionalitat i no oficialitat d'aquestes dades
Logo AVAMET blanc
Web allotjada a Sollutia
Llicència de Creative CommonsLa web d'AVAMET i els seus continguts estan subjectes a una llicència de
Reconeixement - No Comercial - Compartir igual
Properes estacions: Altea - Club Nàutic d'Altea (Soci), Ares del Maestrat (Ajuntament Soci),      - - - - -      Últimes estacions: Catadau - Urb. Lloma Molina (Inforatge), Ontinyent - El Pilar (Soci), Asp - Poliesportiu (Soci) - - -